sensor_id;sensor_type;location;lat;lon;timestamp;pressure;altitude;pressure_sealevel;temperature;humidity
48244;BME280;34053;51.088;6.572;2022-09-25T00:00:02;100812.69;;;14.73;71.54
48244;BME280;34053;51.088;6.572;2022-09-25T00:02:33;100819.31;;;14.61;72.72
48244;BME280;34053;51.088;6.572;2022-09-25T00:05:04;100818.06;;;14.71;72.20
48244;BME280;34053;51.088;6.572;2022-09-25T00:07:36;100822.88;;;14.60;72.01
48244;BME280;34053;51.088;6.572;2022-09-25T00:10:07;100820.44;;;14.55;72.87
48244;BME280;34053;51.088;6.572;2022-09-25T00:12:38;100824.41;;;14.66;72.14
48244;BME280;34053;51.088;6.572;2022-09-25T00:15:09;100815.97;;;14.57;71.60
48244;BME280;34053;51.088;6.572;2022-09-25T00:17:40;100812.31;;;14.60;72.25
48244;BME280;34053;51.088;6.572;2022-09-25T00:20:15;100821.53;;;14.72;72.24
48244;BME280;34053;51.088;6.572;2022-09-25T00:22:46;100812.31;;;14.60;71.30
48244;BME280;34053;51.088;6.572;2022-09-25T00:25:17;100817.34;;;14.45;73.18
48244;BME280;34053;51.088;6.572;2022-09-25T00:27:51;100809.09;;;14.53;72.09
48244;BME280;34053;51.088;6.572;2022-09-25T00:30:22;100817.88;;;14.54;71.64
48244;BME280;34053;51.088;6.572;2022-09-25T00:32:53;100813.69;;;14.48;72.13
48244;BME280;34053;51.088;6.572;2022-09-25T00:35:23;100809.59;;;14.41;72.34
48244;BME280;34053;51.088;6.572;2022-09-25T00:37:54;100816.22;;;14.51;71.31
48244;BME280;34053;51.088;6.572;2022-09-25T00:40:25;100807.56;;;14.47;71.29
48244;BME280;34053;51.088;6.572;2022-09-25T00:42:55;100808.63;;;14.43;72.25
48244;BME280;34053;51.088;6.572;2022-09-25T00:45:26;100809.50;;;14.44;72.00
48244;BME280;34053;51.088;6.572;2022-09-25T00:48:02;100813.16;;;14.40;72.02
48244;BME280;34053;51.088;6.572;2022-09-25T00:50:38;100820.25;;;14.39;71.63
48244;BME280;34053;51.088;6.572;2022-09-25T00:53:18;100818.59;;;14.37;72.04
48244;BME280;34053;51.088;6.572;2022-09-25T00:55:50;100822.69;;;14.44;71.54
48244;BME280;34053;51.088;6.572;2022-09-25T00:58:23;100828.22;;;14.38;71.08
48244;BME280;34053;51.088;6.572;2022-09-25T01:00:55;100832.81;;;14.32;71.45
48244;BME280;34053;51.088;6.572;2022-09-25T01:03:26;100833.19;;;14.45;70.90
48244;BME280;34053;51.088;6.572;2022-09-25T01:05:56;100828.78;;;14.24;72.11
48244;BME280;34053;51.088;6.572;2022-09-25T01:08:30;100828.78;;;14.24;71.44
48244;BME280;34053;51.088;6.572;2022-09-25T01:11:03;100828.44;;;14.11;72.33
48244;BME280;34053;51.088;6.572;2022-09-25T01:13:44;100827.44;;;14.13;71.82
48244;BME280;34053;51.088;6.572;2022-09-25T01:19:14;100833.16;;;14.25;71.33
48244;BME280;34053;51.088;6.572;2022-09-25T01:21:51;100823.38;;;14.27;71.28
48244;BME280;34053;51.088;6.572;2022-09-25T01:27:28;100826.00;;;14.27;70.89
48244;BME280;34053;51.088;6.572;2022-09-25T01:38:33;100826.38;;;14.17;70.91
48244;BME280;34053;51.088;6.572;2022-09-25T01:41:15;100830.75;;;14.19;70.40
48244;BME280;34053;51.088;6.572;2022-09-25T01:44:10;100826.16;;;14.24;70.66
48244;BME280;34053;51.088;6.572;2022-09-25T01:46:48;100827.91;;;14.23;71.00
48244;BME280;34053;51.088;6.572;2022-09-25T01:49:29;100835.06;;;14.21;71.76
48244;BME280;34053;51.088;6.572;2022-09-25T01:52:06;100830.69;;;14.20;71.17
48244;BME280;34053;51.088;6.572;2022-09-25T01:54:41;100833.63;;;14.12;71.45
48244;BME280;34053;51.088;6.572;2022-09-25T01:57:24;100842.00;;;14.24;70.95
48244;BME280;34053;51.088;6.572;2022-09-25T02:00:04;100838.66;;;14.19;72.04
48244;BME280;34053;51.088;6.572;2022-09-25T02:02:45;100838.78;;;14.15;71.32
48244;BME280;34053;51.088;6.572;2022-09-25T02:05:22;100844.81;;;14.19;72.03
48244;BME280;34053;51.088;6.572;2022-09-25T02:08:06;100847.63;;;14.14;71.14
48244;BME280;34053;51.088;6.572;2022-09-25T02:10:46;100844.81;;;14.19;71.14
48244;BME280;34053;51.088;6.572;2022-09-25T02:13:19;100846.03;;;14.10;72.42
48244;BME280;34053;51.088;6.572;2022-09-25T02:15:55;100842.59;;;14.08;72.45
48244;BME280;34053;51.088;6.572;2022-09-25T02:18:27;100839.97;;;14.08;72.59
48244;BME280;34053;51.088;6.572;2022-09-25T02:21:54;100843.34;;;14.12;71.63
48244;BME280;34053;51.088;6.572;2022-09-25T02:24:37;100842.47;;;14.11;71.92
48244;BME280;34053;51.088;6.572;2022-09-25T02:27:10;100850.38;;;14.11;72.47
48244;BME280;34053;51.088;6.572;2022-09-25T02:29:40;100842.81;;;14.02;72.16
48244;BME280;34053;51.088;6.572;2022-09-25T02:32:14;100845.19;;;14.10;71.60
48244;BME280;34053;51.088;6.572;2022-09-25T02:34:46;100846.03;;;14.10;71.31
48244;BME280;34053;51.088;6.572;2022-09-25T02:37:17;100844.84;;;14.17;71.47
48244;BME280;34053;51.088;6.572;2022-09-25T02:39:51;100845.34;;;14.05;72.41
48244;BME280;34053;51.088;6.572;2022-09-25T02:42:53;100846.91;;;14.11;72.05
48244;BME280;34053;51.088;6.572;2022-09-25T02:45:38;100845.09;;;14.11;71.56
48244;BME280;34053;51.088;6.572;2022-09-25T02:51:00;100841.66;;;14.09;73.29
48244;BME280;34053;51.088;6.572;2022-09-25T02:56:45;100841.31;;;13.96;73.08
48244;BME280;34053;51.088;6.572;2022-09-25T02:59:24;100838.97;;;14.11;72.05
48244;BME280;34053;51.088;6.572;2022-09-25T03:01:57;100838.44;;;14.03;72.16
48244;BME280;34053;51.088;6.572;2022-09-25T03:04:41;100836.78;;;14.00;72.09
48244;BME280;34053;51.088;6.572;2022-09-25T03:07:25;100846.38;;;14.01;72.09
48244;BME280;34053;51.088;6.572;2022-09-25T03:10:25;100837.13;;;13.91;73.47
48244;BME280;34053;51.088;6.572;2022-09-25T03:13:11;100835.16;;;13.96;72.72
48244;BME280;34053;51.088;6.572;2022-09-25T03:15:45;100842.81;;;14.02;72.23
48244;BME280;34053;51.088;6.572;2022-09-25T03:18:18;100838.97;;;13.89;72.72
48244;BME280;34053;51.088;6.572;2022-09-25T03:20:48;100844.25;;;13.89;72.66
48244;BME280;34053;51.088;6.572;2022-09-25T03:23:19;100846.94;;;13.87;72.26
48244;BME280;34053;51.088;6.572;2022-09-25T03:25:54;100844.25;;;13.89;72.00
48244;BME280;34053;51.088;6.572;2022-09-25T03:28:24;100855.59;;;13.91;72.39
48244;BME280;34053;51.088;6.572;2022-09-25T03:30:57;100856.38;;;13.93;72.45
48244;BME280;34053;51.088;6.572;2022-09-25T03:33:32;100857.13;;;13.96;72.00
48244;BME280;34053;51.088;6.572;2022-09-25T03:36:10;100852.59;;;14.00;72.17
48244;BME280;34053;51.088;6.572;2022-09-25T03:38:42;100856.59;;;13.88;72.86
48244;BME280;34053;51.088;6.572;2022-09-25T03:41:14;100859.88;;;13.93;72.30
48244;BME280;34053;51.088;6.572;2022-09-25T03:43:48;100857.59;;;13.84;73.04
48244;BME280;34053;51.088;6.572;2022-09-25T03:46:32;100859.59;;;13.77;72.79
48244;BME280;34053;51.088;6.572;2022-09-25T03:49:03;100851.22;;;13.90;72.80
48244;BME280;34053;51.088;6.572;2022-09-25T03:51:34;100855.69;;;13.88;71.90
48244;BME280;34053;51.088;6.572;2022-09-25T03:54:04;100854.91;;;13.85;71.69
48244;BME280;34053;51.088;6.572;2022-09-25T03:56:35;100858.50;;;13.83;71.87
48244;BME280;34053;51.088;6.572;2022-09-25T03:59:06;100850.69;;;13.81;72.66
48244;BME280;34053;51.088;6.572;2022-09-25T04:01:36;100856.59;;;13.88;72.06
48244;BME280;34053;51.088;6.572;2022-09-25T04:04:07;100862.97;;;13.81;72.65
48244;BME280;34053;51.088;6.572;2022-09-25T04:06:37;100857.19;;;13.95;72.53
48244;BME280;34053;51.088;6.572;2022-09-25T04:09:08;100860.31;;;13.82;72.30
48244;BME280;34053;51.088;6.572;2022-09-25T04:11:38;100855.53;;;13.92;73.41
48244;BME280;34053;51.088;6.572;2022-09-25T04:14:09;100853.84;;;13.67;73.13
48244;BME280;34053;51.088;6.572;2022-09-25T04:16:41;100856.19;;;13.75;73.33
48244;BME280;34053;51.088;6.572;2022-09-25T04:19:12;100855.50;;;13.70;73.38
48244;BME280;34053;51.088;6.572;2022-09-25T04:21:45;100855.50;;;13.70;73.14
48244;BME280;34053;51.088;6.572;2022-09-25T04:24:15;100851.25;;;13.66;73.22
48244;BME280;34053;51.088;6.572;2022-09-25T04:27:04;100843.78;;;13.77;72.94
48244;BME280;34053;51.088;6.572;2022-09-25T04:29:35;100846.78;;;13.68;72.76
48244;BME280;34053;51.088;6.572;2022-09-25T04:32:07;100848.31;;;13.74;73.07
48244;BME280;34053;51.088;6.572;2022-09-25T04:34:55;100848.31;;;13.74;72.57
48244;BME280;34053;51.088;6.572;2022-09-25T04:37:28;100842.38;;;13.68;72.09
48244;BME280;34053;51.088;6.572;2022-09-25T04:39:58;100844.44;;;13.60;72.22
48244;BME280;34053;51.088;6.572;2022-09-25T04:42:31;100845.28;;;13.61;72.02
48244;BME280;34053;51.088;6.572;2022-09-25T04:45:02;100844.38;;;13.62;72.14
48244;BME280;34053;51.088;6.572;2022-09-25T04:47:32;100847.19;;;13.57;72.09
48244;BME280;34053;51.088;6.572;2022-09-25T04:50:03;100846.28;;;13.58;71.79
48244;BME280;34053;51.088;6.572;2022-09-25T04:52:34;100851.47;;;13.60;71.57
48244;BME280;34053;51.088;6.572;2022-09-25T04:55:05;100855.09;;;13.57;71.73
48244;BME280;34053;51.088;6.572;2022-09-25T04:57:36;100861.09;;;13.61;72.12
48244;BME280;34053;51.088;6.572;2022-09-25T05:00:09;100861.28;;;13.56;71.58
48244;BME280;34053;51.088;6.572;2022-09-25T05:02:40;100861.28;;;13.56;71.51
48244;BME280;34053;51.088;6.572;2022-09-25T05:05:11;100861.41;;;13.53;71.59
48244;BME280;34053;51.088;6.572;2022-09-25T05:10:29;100872.00;;;13.51;71.33
48244;BME280;34053;51.088;6.572;2022-09-25T05:13:01;100864.22;;;13.48;71.80
48244;BME280;34053;51.088;6.572;2022-09-25T05:15:32;100868.56;;;13.49;71.32
48244;BME280;34053;51.088;6.572;2022-09-25T05:20:34;100868.56;;;13.49;71.20
48244;BME280;34053;51.088;6.572;2022-09-25T05:23:05;100867.94;;;13.43;71.83
48244;BME280;34053;51.088;6.572;2022-09-25T05:25:35;100866.13;;;13.43;71.25
48244;BME280;34053;51.088;6.572;2022-09-25T05:28:06;100866.19;;;13.42;71.29
48244;BME280;34053;51.088;6.572;2022-09-25T05:30:37;100860.69;;;13.48;71.78
48244;BME280;34053;51.088;6.572;2022-09-25T05:33:08;100868.41;;;13.54;70.99
48244;BME280;34053;51.088;6.572;2022-09-25T05:35:39;100863.56;;;13.42;71.53
48244;BME280;34053;51.088;6.572;2022-09-25T05:38:10;100868.91;;;13.40;71.23
48244;BME280;34053;51.088;6.572;2022-09-25T05:40:41;100865.34;;;13.41;71.86
48244;BME280;34053;51.088;6.572;2022-09-25T05:43:12;100864.16;;;13.50;71.19
48244;BME280;34053;51.088;6.572;2022-09-25T05:45:43;100867.19;;;13.39;71.82
48244;BME280;34053;51.088;6.572;2022-09-25T05:48:13;100866.34;;;13.38;72.47
48244;BME280;34053;51.088;6.572;2022-09-25T05:50:50;100868.56;;;13.49;71.75
48244;BME280;34053;51.088;6.572;2022-09-25T05:53:22;100867.19;;;13.39;71.81
48244;BME280;34053;51.088;6.572;2022-09-25T05:56:03;100868.28;;;13.32;72.14
48244;BME280;34053;51.088;6.572;2022-09-25T05:59:44;100873.88;;;13.22;72.23
48244;BME280;34053;51.088;6.572;2022-09-25T06:03:03;100867.66;;;13.25;72.46
48244;BME280;34053;51.088;6.572;2022-09-25T06:05:34;100874.88;;;13.20;72.84
48244;BME280;34053;51.088;6.572;2022-09-25T06:08:06;100879.16;;;13.22;72.86
48244;BME280;34053;51.088;6.572;2022-09-25T06:10:38;100877.19;;;13.29;71.83
48244;BME280;34053;51.088;6.572;2022-09-25T06:13:08;100879.84;;;13.28;72.53
48244;BME280;34053;51.088;6.572;2022-09-25T06:15:39;100887.88;;;13.25;72.14
48244;BME280;34053;51.088;6.572;2022-09-25T06:18:11;100883.94;;;13.36;72.15
48244;BME280;34053;51.088;6.572;2022-09-25T06:20:41;100883.84;;;13.14;72.74
48244;BME280;34053;51.088;6.572;2022-09-25T06:23:12;100883.00;;;13.14;72.67
48244;BME280;34053;51.088;6.572;2022-09-25T06:25:44;100883.94;;;13.11;72.62
48244;BME280;34053;51.088;6.572;2022-09-25T06:28:15;100878.13;;;13.27;72.70
48244;BME280;34053;51.088;6.572;2022-09-25T06:30:45;100891.25;;;13.28;72.52
48244;BME280;34053;51.088;6.572;2022-09-25T06:33:16;100889.63;;;13.24;72.54
48244;BME280;34053;51.088;6.572;2022-09-25T06:35:47;100897.66;;;13.21;72.84
48244;BME280;34053;51.088;6.572;2022-09-25T06:38:19;100890.59;;;13.21;72.13
48244;BME280;34053;51.088;6.572;2022-09-25T06:40:50;100900.31;;;13.21;72.61
48244;BME280;34053;51.088;6.572;2022-09-25T06:43:21;100898.22;;;13.05;73.57
48244;BME280;34053;51.088;6.572;2022-09-25T06:45:51;100901.34;;;12.90;74.34
48244;BME280;34053;51.088;6.572;2022-09-25T06:48:22;100896.09;;;13.15;73.31
48244;BME280;34053;51.088;6.572;2022-09-25T06:50:54;100900.41;;;13.18;72.55
48244;BME280;34053;51.088;6.572;2022-09-25T06:53:25;100900.13;;;13.26;71.87
48244;BME280;34053;51.088;6.572;2022-09-25T06:55:56;100901.06;;;13.25;72.16
48244;BME280;34053;51.088;6.572;2022-09-25T07:02:18;100902.66;;;13.29;72.00
48244;BME280;34053;51.088;6.572;2022-09-25T07:05:12;100902.66;;;13.29;71.97
48244;BME280;34053;51.088;6.572;2022-09-25T07:07:43;100901.16;;;13.21;72.06
48244;BME280;34053;51.088;6.572;2022-09-25T07:10:14;100913.94;;;13.32;71.59
48244;BME280;34053;51.088;6.572;2022-09-25T07:12:45;100912.88;;;13.13;72.32
48244;BME280;34053;51.088;6.572;2022-09-25T07:15:19;100911.75;;;13.20;72.29
48244;BME280;34053;51.088;6.572;2022-09-25T07:17:49;100910.63;;;13.27;71.50
48244;BME280;34053;51.088;6.572;2022-09-25T07:20:21;100919.81;;;13.15;72.36
48244;BME280;34053;51.088;6.572;2022-09-25T07:22:52;100917.06;;;13.18;71.76
48244;BME280;34053;51.088;6.572;2022-09-25T07:25:23;100915.69;;;13.08;72.25
48244;BME280;34053;51.088;6.572;2022-09-25T07:27:54;100918.00;;;13.17;71.95
48244;BME280;34053;51.088;6.572;2022-09-25T07:30:28;100919.53;;;13.23;71.57
48244;BME280;34053;51.088;6.572;2022-09-25T07:33:02;100924.03;;;13.19;71.62
48244;BME280;34053;51.088;6.572;2022-09-25T07:35:34;100923.69;;;13.30;71.00
48244;BME280;34053;51.088;6.572;2022-09-25T07:38:04;100916.81;;;13.26;71.37
48244;BME280;34053;51.088;6.572;2022-09-25T07:40:35;100935.16;;;13.29;70.74
48244;BME280;34053;51.088;6.572;2022-09-25T07:43:59;100927.25;;;13.29;70.82
48244;BME280;34053;51.088;6.572;2022-09-25T07:46:30;100922.81;;;13.30;70.74
48244;BME280;34053;51.088;6.572;2022-09-25T07:49:01;100923.47;;;13.36;70.63
48244;BME280;34053;51.088;6.572;2022-09-25T07:51:32;100913.94;;;13.32;70.43
48244;BME280;34053;51.088;6.572;2022-09-25T07:54:02;100929.13;;;13.26;70.83
48244;BME280;34053;51.088;6.572;2022-09-25T07:56:33;100924.16;;;13.16;71.41
48244;BME280;34053;51.088;6.572;2022-09-25T07:59:04;100927.72;;;13.15;71.54
48244;BME280;34053;51.088;6.572;2022-09-25T08:01:35;100929.13;;;13.26;71.64
48244;BME280;34053;51.088;6.572;2022-09-25T08:04:18;100924.53;;;13.31;71.68
48244;BME280;34053;51.088;6.572;2022-09-25T08:06:50;100923.69;;;13.30;71.16
48244;BME280;34053;51.088;6.572;2022-09-25T08:09:20;100922.91;;;13.27;70.86
48244;BME280;34053;51.088;6.572;2022-09-25T08:11:51;100921.25;;;13.24;70.88
48244;BME280;34053;51.088;6.572;2022-09-25T08:14:22;100919.59;;;13.21;71.12
48244;BME280;34053;51.088;6.572;2022-09-25T08:16:54;100929.88;;;13.29;70.82
48244;BME280;34053;51.088;6.572;2022-09-25T08:19:25;100924.63;;;13.28;70.71
48244;BME280;34053;51.088;6.572;2022-09-25T08:21:57;100936.09;;;13.27;70.86
48244;BME280;34053;51.088;6.572;2022-09-25T08:24:27;100937.81;;;13.28;70.77
48244;BME280;34053;51.088;6.572;2022-09-25T08:26:58;100932.28;;;13.35;70.83
48244;BME280;34053;51.088;6.572;2022-09-25T08:29:29;100933.66;;;13.47;70.08
48244;BME280;34053;51.088;6.572;2022-09-25T08:32:00;100933.00;;;13.41;70.23
48244;BME280;34053;51.088;6.572;2022-09-25T08:34:31;100929.38;;;13.45;70.56
48244;BME280;34053;51.088;6.572;2022-09-25T08:37:01;100923.63;;;13.32;70.79
48244;BME280;34053;51.088;6.572;2022-09-25T08:39:32;100922.72;;;13.33;70.80
48244;BME280;34053;51.088;6.572;2022-09-25T08:42:03;100918.97;;;13.40;70.55
48244;BME280;34053;51.088;6.572;2022-09-25T08:44:43;100912.06;;;13.36;70.84
48244;BME280;34053;51.088;6.572;2022-09-25T08:47:22;100919.97;;;13.36;70.51
48244;BME280;34053;51.088;6.572;2022-09-25T08:50:20;100915.28;;;13.46;70.15
48244;BME280;34053;51.088;6.572;2022-09-25T08:53:03;100920.41;;;13.49;70.07
48244;BME280;34053;51.088;6.572;2022-09-25T08:55:39;100919.09;;;13.61;69.42
48244;BME280;34053;51.088;6.572;2022-09-25T08:58:34;100922.03;;;13.53;69.98
48244;BME280;34053;51.088;6.572;2022-09-25T09:01:15;100928.63;;;13.65;69.90
48244;BME280;34053;51.088;6.572;2022-09-25T09:03:53;100922.31;;;13.69;69.16
48244;BME280;34053;51.088;6.572;2022-09-25T09:06:26;100929.09;;;13.76;68.62
48244;BME280;34053;51.088;6.572;2022-09-25T09:09:05;100932.19;;;13.64;68.57
48244;BME280;34053;51.088;6.572;2022-09-25T09:12:13;100931.03;;;13.71;68.95
48244;BME280;34053;51.088;6.572;2022-09-25T09:14:48;100936.22;;;13.74;68.43
48244;BME280;34053;51.088;6.572;2022-09-25T09:17:23;100941.34;;;13.77;67.72
48244;BME280;34053;51.088;6.572;2022-09-25T09:19:58;100932.59;;;13.77;66.62
48244;BME280;34053;51.088;6.572;2022-09-25T09:22:38;100930.22;;;13.93;66.28
48244;BME280;34053;51.088;6.572;2022-09-25T09:28:18;100933.56;;;13.98;67.30
48244;BME280;34053;51.088;6.572;2022-09-25T09:31:01;100929.28;;;13.95;67.84
48244;BME280;34053;51.088;6.572;2022-09-25T09:37:02;100921.69;;;14.10;66.29
48244;BME280;34053;51.088;6.572;2022-09-25T09:42:45;100919.13;;;14.08;63.73
48244;BME280;34053;51.088;6.572;2022-09-25T09:45:20;100910.47;;;14.27;64.63
48244;BME280;34053;51.088;6.572;2022-09-25T09:50:28;100912.16;;;14.29;63.77
48244;BME280;34053;51.088;6.572;2022-09-25T09:53:12;100905.88;;;14.32;64.27
48244;BME280;34053;51.088;6.572;2022-09-25T09:55:53;100908.38;;;14.35;63.62
48244;BME280;34053;51.088;6.572;2022-09-25T10:00:59;100909.19;;;14.37;63.78
48244;BME280;34053;51.088;6.572;2022-09-25T10:03:35;100910.78;;;14.41;63.51
48244;BME280;34053;51.088;6.572;2022-09-25T10:06:13;100907.91;;;14.47;61.52
48244;BME280;34053;51.088;6.572;2022-09-25T10:08:46;100916.47;;;14.53;62.94
48244;BME280;34053;51.088;6.572;2022-09-25T10:11:20;100907.72;;;14.52;62.67
48244;BME280;34053;51.088;6.572;2022-09-25T10:13:58;100909.06;;;14.62;62.92
48244;BME280;34053;51.088;6.572;2022-09-25T10:16:38;100902.16;;;14.58;59.69
48244;BME280;34053;51.088;6.572;2022-09-25T10:19:23;100900.53;;;14.56;62.95
48244;BME280;34053;51.088;6.572;2022-09-25T10:22:06;100900.53;;;14.56;61.17
48244;BME280;34053;51.088;6.572;2022-09-25T10:24:58;100906.72;;;14.55;60.81
48244;BME280;34053;51.088;6.572;2022-09-25T10:27:32;100905.13;;;14.73;59.30
48244;BME280;34053;51.088;6.572;2022-09-25T10:41:16;100892.19;;;14.67;60.06
48244;BME280;34053;51.088;6.572;2022-09-25T10:43:59;100892.53;;;14.79;60.27
48244;BME280;34053;51.088;6.572;2022-09-25T10:46:35;100887.19;;;14.81;59.77
48244;BME280;34053;51.088;6.572;2022-09-25T10:49:26;100888.78;;;14.85;60.82
48244;BME280;34053;51.088;6.572;2022-09-25T10:52:17;100889.34;;;14.92;60.90
48244;BME280;34053;51.088;6.572;2022-09-25T10:55:11;100893.34;;;15.02;60.57
48244;BME280;34053;51.088;6.572;2022-09-25T10:57:46;100899.69;;;14.98;57.07
48244;BME280;34053;51.088;6.572;2022-09-25T11:00:21;100898.63;;;15.02;58.25
48244;BME280;34053;51.088;6.572;2022-09-25T11:02:59;100900.41;;;15.02;57.90
48244;BME280;34053;51.088;6.572;2022-09-25T11:05:33;100904.59;;;15.07;57.98
48244;BME280;34053;51.088;6.572;2022-09-25T11:08:05;100900.88;;;15.11;58.30
48244;BME280;34053;51.088;6.572;2022-09-25T11:10:48;100892.41;;;15.03;57.37
48244;BME280;34053;51.088;6.572;2022-09-25T11:13:22;100894.78;;;15.09;58.50
48244;BME280;34053;51.088;6.572;2022-09-25T11:16:00;100896.31;;;15.15;58.05
48244;BME280;34053;51.088;6.572;2022-09-25T11:18:41;100898.03;;;15.16;57.94
48244;BME280;34053;51.088;6.572;2022-09-25T11:22:05;100894.47;;;15.17;58.26
48244;BME280;34053;51.088;6.572;2022-09-25T11:24:34;100896.91;;;15.22;58.12
48244;BME280;34053;51.088;6.572;2022-09-25T11:32:55;100884.34;;;15.27;57.28
48244;BME280;34053;51.088;6.572;2022-09-25T11:35:51;100882.38;;;15.32;58.22
48244;BME280;34053;51.088;6.572;2022-09-25T11:38:52;100876.72;;;15.40;59.39
48244;BME280;34053;51.088;6.572;2022-09-25T11:42:16;100884.47;;;15.64;56.58
48244;BME280;34053;51.088;6.572;2022-09-25T11:45:03;100873.84;;;15.65;55.38
48244;BME280;34053;51.088;6.572;2022-09-25T11:47:47;100874.59;;;15.67;54.21
48244;BME280;34053;51.088;6.572;2022-09-25T11:57:20;100865.28;;;15.98;55.17
48244;BME280;34053;51.088;6.572;2022-09-25T12:00:14;100870.28;;;16.04;53.20
48244;BME280;34053;51.088;6.572;2022-09-25T12:03:07;100862.81;;;16.13;54.02
48244;BME280;34053;51.088;6.572;2022-09-25T12:15:29;100860.63;;;16.40;52.91
48244;BME280;34053;51.088;6.572;2022-09-25T12:21:36;100841.84;;;16.45;52.34
48244;BME280;34053;51.088;6.572;2022-09-25T12:24:46;100839.13;;;16.46;51.83
48244;BME280;34053;51.088;6.572;2022-09-25T12:30:20;100839.03;;;16.65;50.30
48244;BME280;34053;51.088;6.572;2022-09-25T12:33:14;100828.91;;;16.74;49.46
48244;BME280;34053;51.088;6.572;2022-09-25T12:41:48;100823.00;;;17.37;48.51
48244;BME280;34053;51.088;6.572;2022-09-25T12:44:24;100821.69;;;17.28;48.84
48244;BME280;34053;51.088;6.572;2022-09-25T12:47:15;100822.03;;;17.22;51.01
48244;BME280;34053;51.088;6.572;2022-09-25T12:50:26;100821.50;;;17.15;47.40
48244;BME280;34053;51.088;6.572;2022-09-25T12:53:19;100818.75;;;17.17;46.32
48244;BME280;34053;51.088;6.572;2022-09-25T13:02:12;100806.38;;;17.18;46.37
48244;BME280;34053;51.088;6.572;2022-09-25T13:08:21;100792.78;;;17.24;48.60
48244;BME280;34053;51.088;6.572;2022-09-25T13:11:00;100782.91;;;17.43;45.88
48244;BME280;34053;51.088;6.572;2022-09-25T13:13:40;100784.53;;;17.46;47.11
48244;BME280;34053;51.088;6.572;2022-09-25T13:16:17;100797.28;;;17.55;46.99
48244;BME280;34053;51.088;6.572;2022-09-25T13:19:08;100791.97;;;17.55;47.78
48244;BME280;34053;51.088;6.572;2022-09-25T13:21:42;100785.53;;;17.59;47.75
48244;BME280;34053;51.088;6.572;2022-09-25T13:24:14;100787.41;;;17.57;47.64
48244;BME280;34053;51.088;6.572;2022-09-25T13:26:49;100796.00;;;17.62;45.26
48244;BME280;34053;51.088;6.572;2022-09-25T13:29:29;100781.00;;;17.61;46.22
48244;BME280;34053;51.088;6.572;2022-09-25T13:32:17;100780.06;;;17.62;46.30
48244;BME280;34053;51.088;6.572;2022-09-25T13:35:16;100777.66;;;17.74;47.47
48244;BME280;34053;51.088;6.572;2022-09-25T13:37:50;100777.84;;;17.71;46.12
48244;BME280;34053;51.088;6.572;2022-09-25T13:40:39;100786.84;;;17.68;47.30
48244;BME280;34053;51.088;6.572;2022-09-25T13:43:25;100776.19;;;17.84;47.60
48244;BME280;34053;51.088;6.572;2022-09-25T13:48:44;100764.81;;;17.82;46.65
48244;BME280;34053;51.088;6.572;2022-09-25T13:54:01;100761.47;;;17.94;44.72
48244;BME280;34053;51.088;6.572;2022-09-25T14:01:50;100756.34;;;18.07;41.41
48244;BME280;34053;51.088;6.572;2022-09-25T14:04:52;100752.38;;;18.15;45.51
48244;BME280;34053;51.088;6.572;2022-09-25T14:07:33;100761.44;;;18.27;43.20
48244;BME280;34053;51.088;6.572;2022-09-25T14:10:07;100765.28;;;18.21;43.77
48244;BME280;34053;51.088;6.572;2022-09-25T14:12:44;100760.25;;;18.16;45.03
48244;BME280;34053;51.088;6.572;2022-09-25T14:15:35;100759.47;;;18.14;46.54
48244;BME280;34053;51.088;6.572;2022-09-25T14:18:25;100753.63;;;18.23;47.16
48244;BME280;34053;51.088;6.572;2022-09-25T14:20:59;100750.91;;;18.25;46.29
48244;BME280;34053;51.088;6.572;2022-09-25T14:23:32;100754.22;;;18.29;45.52
48244;BME280;34053;51.088;6.572;2022-09-25T14:26:05;100744.53;;;18.28;45.12
48244;BME280;34053;51.088;6.572;2022-09-25T14:28:48;100746.00;;;18.33;47.65
48244;BME280;34053;51.088;6.572;2022-09-25T14:31:45;100747.41;;;18.39;46.85
48244;BME280;34053;51.088;6.572;2022-09-25T14:43:19;100730.56;;;18.69;47.44
48244;BME280;34053;51.088;6.572;2022-09-25T14:46:18;100732.47;;;18.67;45.92
48244;BME280;34053;51.088;6.572;2022-09-25T14:48:57;100729.25;;;18.62;46.50
48244;BME280;34053;51.088;6.572;2022-09-25T14:51:37;100728.47;;;18.45;46.11
48244;BME280;34053;51.088;6.572;2022-09-25T14:54:14;100729.03;;;18.50;45.58
48244;BME280;34053;51.088;6.572;2022-09-25T14:56:57;100729.78;;;18.52;46.48
48244;BME280;34053;51.088;6.572;2022-09-25T14:59:33;100731.13;;;18.45;46.04
48244;BME280;34053;51.088;6.572;2022-09-25T15:02:19;100726.19;;;18.53;47.93
48244;BME280;34053;51.088;6.572;2022-09-25T15:04:56;100726.38;;;18.50;46.27
48244;BME280;34053;51.088;6.572;2022-09-25T15:07:27;100718.50;;;18.49;45.05
48244;BME280;34053;51.088;6.572;2022-09-25T15:10:00;100711.94;;;18.40;47.02
48244;BME280;34053;51.088;6.572;2022-09-25T15:12:32;100712.19;;;18.35;43.90
48244;BME280;34053;51.088;6.572;2022-09-25T15:15:12;100710.03;;;18.42;46.27
48244;BME280;34053;51.088;6.572;2022-09-25T15:17:59;100710.16;;;18.40;45.35
48244;BME280;34053;51.088;6.572;2022-09-25T15:20:32;100713.44;;;18.30;47.22
48244;BME280;34053;51.088;6.572;2022-09-25T15:23:08;100706.03;;;18.35;47.87
48244;BME280;34053;51.088;6.572;2022-09-25T15:25:49;100707.66;;;18.37;47.55
48244;BME280;34053;51.088;6.572;2022-09-25T15:28:39;100697.41;;;18.31;47.76
48244;BME280;34053;51.088;6.572;2022-09-25T15:31:13;100700.47;;;18.39;48.81
48244;BME280;34053;51.088;6.572;2022-09-25T15:34:18;100697.91;;;18.38;48.00
48244;BME280;34053;51.088;6.572;2022-09-25T15:40:13;100688.78;;;18.42;47.19
48244;BME280;34053;51.088;6.572;2022-09-25T15:42:56;100690.50;;;18.43;47.19
48244;BME280;34053;51.088;6.572;2022-09-25T15:45:56;100687.56;;;18.48;47.58